createdAt,value
2017-10-06T00:02:03.445Z,68.00
2017-10-06T00:04:31.711Z,68.10
2017-10-06T00:06:59.256Z,68.10
2017-10-06T00:09:26.765Z,68.30
2017-10-06T00:11:55.043Z,68.40
2017-10-06T00:14:23.806Z,68.20
2017-10-06T00:16:52.983Z,68.00
2017-10-06T00:19:21.292Z,68.00
2017-10-06T00:21:48.867Z,68.00
2017-10-06T00:24:16.385Z,67.90
2017-10-06T00:26:43.863Z,68.00
2017-10-06T00:29:12.443Z,68.60
2017-10-06T00:31:41.412Z,67.60
2017-10-06T00:34:10.892Z,67.60
2017-10-06T00:36:39.516Z,67.60
2017-10-06T00:39:06.998Z,67.50
2017-10-06T00:41:34.491Z,67.30
2017-10-06T00:44:02.602Z,67.40
2017-10-06T00:46:30.071Z,67.40
2017-10-06T00:48:58.120Z,67.30
2017-10-06T00:51:25.633Z,67.50
2017-10-06T00:53:53.177Z,67.50
2017-10-06T00:56:22.531Z,67.30
2017-10-06T00:58:50.736Z,67.30
2017-10-06T01:01:19.278Z,67.90
2017-10-06T01:03:47.150Z,67.90
2017-10-06T01:06:16.187Z,68.20
2017-10-06T01:08:43.689Z,68.20
2017-10-06T01:11:11.294Z,68.40
2017-10-06T01:13:39.216Z,68.60
2017-10-06T01:16:07.331Z,68.60
2017-10-06T01:18:35.655Z,69.50
2017-10-06T01:21:03.140Z,69.20
2017-10-06T01:23:31.390Z,69.40
2017-10-06T01:26:00.225Z,69.40
2017-10-06T01:28:28.022Z,69.20
2017-10-06T01:30:57.546Z,69.30
2017-10-06T01:33:25.317Z,69.20
2017-10-06T01:35:52.856Z,69.50
2017-10-06T01:38:20.365Z,69.20
2017-10-06T01:40:47.861Z,69.30
2017-10-06T01:43:15.358Z,69.30
2017-10-06T01:45:43.487Z,69.40
2017-10-06T01:48:12.267Z,69.50
2017-10-06T01:50:40.572Z,69.60
2017-10-06T01:53:08.113Z,69.60
2017-10-06T01:55:36.324Z,69.80
2017-10-06T01:58:05.010Z,70.00
2017-10-06T02:00:33.040Z,70.00
2017-10-06T02:03:01.051Z,70.00
2017-10-06T02:05:28.763Z,70.30
2017-10-06T02:07:56.254Z,70.40
2017-10-06T02:10:24.536Z,70.30
2017-10-06T02:12:52.784Z,70.20
2017-10-06T02:15:20.408Z,70.50
2017-10-06T02:17:47.915Z,70.40
2017-10-06T02:20:15.477Z,70.20
2017-10-06T02:22:43.407Z,70.20
2017-10-06T02:25:10.915Z,70.10
2017-10-06T02:27:39.156Z,70.30
2017-10-06T02:30:06.693Z,70.20
2017-10-06T02:32:34.471Z,70.20
2017-10-06T02:35:01.963Z,70.30
2017-10-06T02:37:29.419Z,70.60
2017-10-06T02:39:56.901Z,70.70
2017-10-06T02:42:25.122Z,70.90
2017-10-06T02:44:53.112Z,70.80
2017-10-06T02:47:21.778Z,71.40
2017-10-06T02:49:49.733Z,71.10
2017-10-06T02:52:17.193Z,71.00
2017-10-06T02:54:45.416Z,71.80
2017-10-06T02:57:13.402Z,71.80
2017-10-06T02:59:41.970Z,72.10
2017-10-06T03:02:11.038Z,72.30
2017-10-06T03:04:39.269Z,72.20
2017-10-06T03:07:07.045Z,72.10
2017-10-06T03:09:35.378Z,72.70
2017-10-06T03:12:03.222Z,72.40
2017-10-06T03:14:30.671Z,72.50
2017-10-06T03:16:58.676Z,72.60
2017-10-06T03:19:26.149Z,72.80
2017-10-06T03:21:53.694Z,72.50
2017-10-06T03:24:21.168Z,72.60
2017-10-06T03:26:48.637Z,72.40
2017-10-06T03:29:16.523Z,72.90
2017-10-06T03:31:45.653Z,72.80
2017-10-06T03:34:13.885Z,72.60
2017-10-06T03:36:41.349Z,72.60
2017-10-06T03:39:09.586Z,72.80
2017-10-06T03:41:37.063Z,72.70
2017-10-06T03:44:05.080Z,72.50
2017-10-06T03:46:32.548Z,72.60
2017-10-06T03:49:01.345Z,72.50
2017-10-06T03:51:28.802Z,72.40
2017-10-06T03:53:56.355Z,72.40
2017-10-06T03:56:24.365Z,72.10
2017-10-06T03:58:53.142Z,72.40
2017-10-06T04:01:21.545Z,72.30
2017-10-06T04:03:49.197Z,72.30
2017-10-06T04:06:16.666Z,72.10
2017-10-06T04:08:44.457Z,72.20
2017-10-06T04:11:12.276Z,72.10
2017-10-06T04:13:40.516Z,72.30
2017-10-06T04:16:08.394Z,72.20
2017-10-06T04:18:36.670Z,72.40
2017-10-06T04:21:04.115Z,72.40
2017-10-06T04:23:31.610Z,72.60
2017-10-06T04:25:59.112Z,72.60
2017-10-06T04:28:26.614Z,72.90
2017-10-06T04:30:55.021Z,72.90
2017-10-06T04:33:23.448Z,72.90
2017-10-06T04:35:51.665Z,73.00
2017-10-06T04:38:19.504Z,72.90
2017-10-06T04:40:46.961Z,72.90
2017-10-06T04:43:14.483Z,72.90
2017-10-06T04:45:42.497Z,73.10
2017-10-06T04:48:11.155Z,73.30
2017-10-06T04:50:39.956Z,73.80
2017-10-06T04:53:07.573Z,73.30
2017-10-06T04:55:36.272Z,73.70
2017-10-06T04:58:04.607Z,73.70
2017-10-06T05:00:33.979Z,73.70
2017-10-06T05:03:02.055Z,73.60
2017-10-06T05:05:30.359Z,73.30
2017-10-06T05:07:57.827Z,73.30
2017-10-06T05:10:25.310Z,73.10
2017-10-06T05:12:53.939Z,73.10
2017-10-06T05:15:21.415Z,73.10
2017-10-06T05:17:48.918Z,73.10
2017-10-06T05:20:16.401Z,73.20
2017-10-06T05:22:44.451Z,73.30
2017-10-06T05:25:13.044Z,73.20
2017-10-06T05:27:40.606Z,73.20
2017-10-06T05:30:08.287Z,73.30
2017-10-06T05:32:36.243Z,73.40
2017-10-06T05:35:04.567Z,73.70
2017-10-06T05:37:32.102Z,73.20
2017-10-06T05:40:00.055Z,73.20
2017-10-06T05:42:27.505Z,73.20
2017-10-06T05:44:55.043Z,73.30
2017-10-06T05:47:23.141Z,73.10
2017-10-06T05:49:52.146Z,73.40
2017-10-06T05:52:19.630Z,72.90
2017-10-06T05:54:47.072Z,73.30
2017-10-06T05:57:15.111Z,73.20
2017-10-06T05:59:42.904Z,73.40
2017-10-06T06:02:12.086Z,74.50
2017-10-06T06:04:39.530Z,73.90
2017-10-06T06:07:07.783Z,73.70
2017-10-06T06:09:36.016Z,73.90
2017-10-06T06:12:04.056Z,73.90
2017-10-06T06:14:31.717Z,73.60
2017-10-06T06:16:59.195Z,73.50
2017-10-06T06:19:27.508Z,73.30
2017-10-06T06:21:55.044Z,73.20
2017-10-06T06:24:22.545Z,73.20
2017-10-06T06:26:50.908Z,73.40
2017-10-06T06:29:18.388Z,73.40
2017-10-06T06:31:47.100Z,73.20
2017-10-06T06:34:15.014Z,73.20
2017-10-06T06:36:42.553Z,73.60
2017-10-06T06:39:10.046Z,73.20
2017-10-06T06:41:38.391Z,73.50
2017-10-06T06:44:06.988Z,73.50
2017-10-06T06:46:35.290Z,73.20
2017-10-06T06:49:03.091Z,73.10
2017-10-06T06:51:31.751Z,72.90
2017-10-06T06:53:59.972Z,72.90
2017-10-06T06:56:27.888Z,72.90
2017-10-06T06:58:55.602Z,72.90
2017-10-06T07:01:23.881Z,72.40
2017-10-06T07:03:52.444Z,73.00
2017-10-06T07:06:20.752Z,73.20
2017-10-06T07:08:48.335Z,73.20
2017-10-06T07:11:15.782Z,73.50
2017-10-06T07:13:44.078Z,73.50
2017-10-06T07:16:12.152Z,73.30
2017-10-06T07:18:39.691Z,73.50
2017-10-06T07:21:07.157Z,73.50
2017-10-06T07:23:34.681Z,73.40
2017-10-06T07:26:02.219Z,73.50
2017-10-06T07:28:30.032Z,73.60
2017-10-06T07:30:57.486Z,73.10
2017-10-06T07:33:25.919Z,73.10
2017-10-06T07:35:53.412Z,73.00
2017-10-06T07:38:20.876Z,73.20
2017-10-06T07:40:48.352Z,72.80
2017-10-06T07:43:16.658Z,73.20
2017-10-06T07:45:44.207Z,73.10
2017-10-06T07:48:12.143Z,73.10
2017-10-06T07:50:40.212Z,73.30
2017-10-06T07:53:07.674Z,73.50
2017-10-06T07:55:35.454Z,73.70
2017-10-06T07:58:04.591Z,73.80
2017-10-06T08:00:32.380Z,73.80
2017-10-06T08:03:01.254Z,73.60
2017-10-06T08:05:29.516Z,73.70
2017-10-06T08:07:57.747Z,73.60
2017-10-06T08:10:25.308Z,73.60
2017-10-06T08:12:52.789Z,73.60
2017-10-06T08:15:20.282Z,73.20
2017-10-06T08:17:48.403Z,73.10
2017-10-06T08:20:15.857Z,73.00
2017-10-06T08:22:43.352Z,72.90
2017-10-06T08:25:10.809Z,73.90
2017-10-06T08:27:38.464Z,74.30
2017-10-06T08:30:05.928Z,74.00
2017-10-06T08:32:33.401Z,74.50
2017-10-06T08:35:01.981Z,74.60
2017-10-06T08:37:30.749Z,75.00
2017-10-06T08:39:58.967Z,74.50
2017-10-06T08:42:26.420Z,74.50
2017-10-06T08:44:53.921Z,74.50
2017-10-06T08:47:21.829Z,74.60
2017-10-06T08:49:50.358Z,74.50
2017-10-06T08:52:18.163Z,74.40
2017-10-06T08:54:46.417Z,74.20
2017-10-06T08:57:15.193Z,74.10
2017-10-06T08:59:43.944Z,74.50
2017-10-06T09:02:11.856Z,74.40
2017-10-06T09:04:39.313Z,74.50
2017-10-06T09:07:06.848Z,74.00
2017-10-06T09:09:34.290Z,74.60
2017-10-06T09:12:01.978Z,74.20
2017-10-06T09:14:30.212Z,75.10
2017-10-06T09:16:58.068Z,75.10
2017-10-06T09:19:25.538Z,74.80
2017-10-06T09:21:53.074Z,74.40
2017-10-06T09:24:21.089Z,74.00
2017-10-06T09:26:48.578Z,74.50
2017-10-06T09:29:16.799Z,75.30
2017-10-06T09:31:45.026Z,74.70
2017-10-06T09:34:13.040Z,74.70
2017-10-06T09:36:41.949Z,75.10
2017-10-06T09:39:09.409Z,75.10
2017-10-06T09:41:36.895Z,75.20
2017-10-06T09:44:05.146Z,75.00
2017-10-06T09:46:32.599Z,74.90
2017-10-06T09:49:01.254Z,75.40
2017-10-06T09:51:30.133Z,75.40
2017-10-06T09:53:57.653Z,75.70
2017-10-06T09:56:25.545Z,76.00
2017-10-06T09:58:54.506Z,77.00
2017-10-06T10:01:21.947Z,77.00
2017-10-06T10:03:50.981Z,76.90
2017-10-06T10:06:18.525Z,76.80
2017-10-06T10:08:46.066Z,76.20
2017-10-06T10:11:14.893Z,76.60
2017-10-06T10:13:43.192Z,76.50
2017-10-06T10:16:11.113Z,76.40
2017-10-06T10:18:39.411Z,76.50
2017-10-06T10:21:06.897Z,76.50
2017-10-06T10:23:34.687Z,76.90
2017-10-06T10:26:02.152Z,75.60
2017-10-06T10:28:29.731Z,75.40
2017-10-06T10:30:58.049Z,75.80
2017-10-06T10:33:25.803Z,75.00
2017-10-06T10:35:54.691Z,75.40
2017-10-06T10:38:22.189Z,75.40
2017-10-06T10:40:49.676Z,76.50
2017-10-06T10:43:17.151Z,76.30
2017-10-06T10:45:45.438Z,76.60
2017-10-06T10:48:13.461Z,76.50
2017-10-06T10:50:42.192Z,76.50
2017-10-06T10:53:10.136Z,76.50
2017-10-06T10:55:37.935Z,75.70
2017-10-06T10:58:06.536Z,75.80
2017-10-06T11:00:34.358Z,75.80
2017-10-06T11:03:03.068Z,75.30
2017-10-06T11:05:30.561Z,75.30
2017-10-06T11:07:59.161Z,73.70
2017-10-06T11:10:29.577Z,73.80
2017-10-06T11:12:57.135Z,75.10
2017-10-06T11:15:25.265Z,74.20
2017-10-06T11:17:53.034Z,73.50
2017-10-06T11:20:20.688Z,72.30
2017-10-06T11:22:48.157Z,72.90
2017-10-06T11:25:15.641Z,72.00
2017-10-06T11:27:43.336Z,71.20
2017-10-06T11:30:10.808Z,72.70
2017-10-06T11:32:39.140Z,70.30
2017-10-06T11:35:07.343Z,70.30
2017-10-06T11:37:34.789Z,71.70
2017-10-06T11:40:02.498Z,71.70
2017-10-06T11:42:30.744Z,72.00
2017-10-06T11:44:58.302Z,71.40
2017-10-06T11:47:26.521Z,70.80
2017-10-06T11:49:54.066Z,70.50
2017-10-06T11:52:21.976Z,71.30
2017-10-06T11:54:51.159Z,72.40
2017-10-06T11:57:19.722Z,73.20
2017-10-06T11:59:48.589Z,73.60
2017-10-06T12:02:17.175Z,73.60
2017-10-06T12:04:44.957Z,73.60
2017-10-06T12:07:13.266Z,74.00
2017-10-06T12:09:41.498Z,72.50
2017-10-06T12:12:09.018Z,72.50
2017-10-06T12:14:36.481Z,72.50
2017-10-06T12:17:03.941Z,72.60
2017-10-06T12:19:31.515Z,73.10
2017-10-06T12:21:59.187Z,72.40
2017-10-06T12:24:26.947Z,71.50
2017-10-06T12:26:54.759Z,72.00
2017-10-06T12:29:23.048Z,70.20
2017-10-06T12:31:50.555Z,70.10
2017-10-06T12:34:18.029Z,69.20
2017-10-06T12:36:45.754Z,69.50
2017-10-06T12:39:13.685Z,68.10
2017-10-06T12:41:41.931Z,66.10
2017-10-06T12:44:09.420Z,66.10
2017-10-06T12:46:36.872Z,66.60
2017-10-06T12:49:05.164Z,67.40
2017-10-06T12:51:33.660Z,68.00
2017-10-06T12:54:01.906Z,68.20
2017-10-06T12:56:31.141Z,68.80
2017-10-06T12:58:59.472Z,68.80
2017-10-06T13:01:26.962Z,69.80
2017-10-06T13:03:54.689Z,68.60
2017-10-06T13:06:22.249Z,68.50
2017-10-06T13:08:49.758Z,67.10
2017-10-06T13:11:17.217Z,68.20
2017-10-06T13:13:44.762Z,66.30
2017-10-06T13:16:12.236Z,66.50
2017-10-06T13:18:39.699Z,68.10
2017-10-06T13:21:07.826Z,69.20
2017-10-06T13:23:35.270Z,70.40
2017-10-06T13:26:02.748Z,71.50
2017-10-06T13:28:30.992Z,72.60
2017-10-06T13:30:59.243Z,71.70
2017-10-06T13:33:26.703Z,71.70
2017-10-06T13:35:54.696Z,72.00
2017-10-06T13:38:22.158Z,70.50
2017-10-06T13:40:49.633Z,69.70
2017-10-06T13:43:17.884Z,68.30
2017-10-06T13:45:45.498Z,68.30
2017-10-06T13:48:13.497Z,66.60
2017-10-06T13:50:42.106Z,63.50
2017-10-06T13:53:10.110Z,63.50
2017-10-06T13:55:38.862Z,63.20
2017-10-06T13:58:06.645Z,63.10
2017-10-06T14:00:34.631Z,62.90
2017-10-06T14:03:02.685Z,59.80
2017-10-06T14:05:30.168Z,59.20
2017-10-06T14:07:57.871Z,59.00
2017-10-06T14:10:25.348Z,59.00
2017-10-06T14:12:52.836Z,60.10
2017-10-06T14:15:20.791Z,59.70
2017-10-06T14:17:48.269Z,59.00
2017-10-06T14:20:15.727Z,59.60
2017-10-06T14:22:43.339Z,59.50
2017-10-06T14:25:10.792Z,60.40
2017-10-06T14:27:38.569Z,60.10
2017-10-06T14:30:06.901Z,61.50
2017-10-06T14:32:34.377Z,61.50
2017-10-06T14:35:02.608Z,59.70
2017-10-06T14:37:30.555Z,59.60
2017-10-06T14:39:58.015Z,59.70
2017-10-06T14:42:27.058Z,57.80
2017-10-06T14:44:54.954Z,57.80
2017-10-06T14:47:22.965Z,57.80
2017-10-06T14:49:50.444Z,59.40
2017-10-06T14:52:18.417Z,59.50
2017-10-06T14:54:46.658Z,61.30
2017-10-06T14:57:14.779Z,61.30
2017-10-06T14:59:43.492Z,60.70
2017-10-06T15:02:11.654Z,60.80
2017-10-06T15:04:40.746Z,59.60
2017-10-06T15:07:08.429Z,59.60
2017-10-06T15:09:35.876Z,58.80
2017-10-06T15:12:03.988Z,58.30
2017-10-06T15:14:32.491Z,56.20
2017-10-06T15:17:00.067Z,56.20
2017-10-06T15:19:28.331Z,55.40
2017-10-06T15:21:55.801Z,55.40
2017-10-06T15:24:24.710Z,56.70
2017-10-06T15:26:52.173Z,56.70
2017-10-06T15:29:19.625Z,56.90
2017-10-06T15:31:47.108Z,56.80
2017-10-06T15:34:15.257Z,56.80
2017-10-06T15:36:44.693Z,58.20
2017-10-06T15:39:12.504Z,58.10
2017-10-06T15:41:40.583Z,58.60
2017-10-06T15:44:08.078Z,58.70
2017-10-06T15:46:36.971Z,60.00
2017-10-06T15:49:05.057Z,59.90
2017-10-06T15:51:32.517Z,61.20
2017-10-06T15:54:00.423Z,63.30
2017-10-06T15:56:29.136Z,65.80
2017-10-06T15:58:57.230Z,66.90
2017-10-06T16:01:25.499Z,68.70
2017-10-06T16:03:54.176Z,69.20
2017-10-06T16:06:21.700Z,69.20
2017-10-06T16:08:49.217Z,69.90
2017-10-06T16:11:16.750Z,70.00
2017-10-06T16:13:45.720Z,70.50
2017-10-06T16:16:13.494Z,70.40
2017-10-06T16:18:41.069Z,70.50
2017-10-06T16:21:08.607Z,71.40
2017-10-06T16:23:36.189Z,70.50
2017-10-06T16:26:03.642Z,69.80
2017-10-06T16:28:32.251Z,69.80
2017-10-06T16:31:00.785Z,69.80
2017-10-06T16:33:28.898Z,69.80
2017-10-06T16:35:57.634Z,69.30
2017-10-06T16:38:25.095Z,68.60
2017-10-06T16:40:52.581Z,68.90
2017-10-06T16:43:20.033Z,69.10
2017-10-06T16:45:48.232Z,69.00
2017-10-06T16:48:16.811Z,69.40
2017-10-06T16:50:44.413Z,68.80
2017-10-06T16:53:12.387Z,68.50
2017-10-06T16:55:41.915Z,68.00
2017-10-06T16:58:09.848Z,68.00
2017-10-06T17:00:37.705Z,67.50
2017-10-06T17:03:05.984Z,68.20
2017-10-06T17:05:33.449Z,68.00
2017-10-06T17:08:00.963Z,67.90
2017-10-06T17:10:28.429Z,68.20
2017-10-06T17:12:56.803Z,68.30
2017-10-06T17:15:24.734Z,68.50
2017-10-06T17:17:52.215Z,69.00
2017-10-06T17:20:20.473Z,68.90
2017-10-06T17:22:48.709Z,68.90
2017-10-06T17:25:16.642Z,68.90
2017-10-06T17:27:44.744Z,69.00
2017-10-06T17:30:12.998Z,69.40
2017-10-06T17:32:40.974Z,69.30
2017-10-06T17:35:08.474Z,70.30
2017-10-06T17:37:36.667Z,70.00
2017-10-06T17:40:04.892Z,70.10
2017-10-06T17:42:33.916Z,70.40
2017-10-06T17:45:01.403Z,70.30
2017-10-06T17:47:29.096Z,70.40
2017-10-06T17:49:57.316Z,70.40
2017-10-06T17:52:24.827Z,70.30
2017-10-06T17:54:53.151Z,70.50
2017-10-06T17:57:22.096Z,71.20
2017-10-06T17:59:50.192Z,71.20
2017-10-06T18:02:18.286Z,71.30
2017-10-06T18:04:45.818Z,71.70
2017-10-06T18:07:13.287Z,71.30
2017-10-06T18:09:40.773Z,71.70
2017-10-06T18:12:08.352Z,71.40
2017-10-06T18:14:35.850Z,71.80
2017-10-06T18:17:05.395Z,71.80
2017-10-06T18:19:33.278Z,71.80
2017-10-06T18:22:01.525Z,72.20
2017-10-06T18:24:29.769Z,72.20
2017-10-06T18:26:57.398Z,72.20
2017-10-06T18:29:24.872Z,72.30
2017-10-06T18:31:53.868Z,72.60
2017-10-06T18:34:21.629Z,72.70
2017-10-06T18:36:49.581Z,72.60
2017-10-06T18:39:17.123Z,72.60
2017-10-06T18:41:45.411Z,72.90
2017-10-06T18:44:12.925Z,72.70
2017-10-06T18:46:41.913Z,72.50
2017-10-06T18:49:09.840Z,72.50
2017-10-06T18:51:38.157Z,72.30
2017-10-06T18:54:06.217Z,72.30
2017-10-06T18:56:34.011Z,72.10
2017-10-06T18:59:03.602Z,72.10
2017-10-06T19:01:31.926Z,71.70
2017-10-06T19:04:00.845Z,71.60
2017-10-06T19:06:28.364Z,71.60
2017-10-06T19:08:56.540Z,72.00
2017-10-06T19:11:25.174Z,71.50
2017-10-06T19:13:52.991Z,71.50
2017-10-06T19:16:20.479Z,71.70
2017-10-06T19:18:48.098Z,71.70
2017-10-06T19:21:15.582Z,71.60
2017-10-06T19:23:43.820Z,71.80
2017-10-06T19:26:11.583Z,71.80
2017-10-06T19:28:40.517Z,72.10
2017-10-06T19:31:08.103Z,72.10
2017-10-06T19:33:35.611Z,72.00
2017-10-06T19:36:03.112Z,72.00
2017-10-06T19:38:32.405Z,71.80
2017-10-06T19:40:59.886Z,71.70
2017-10-06T19:43:27.519Z,71.60
2017-10-06T19:45:55.891Z,72.00
2017-10-06T19:48:23.889Z,72.00
2017-10-06T19:50:52.166Z,71.50
2017-10-06T19:53:19.644Z,71.40
2017-10-06T19:55:48.573Z,71.20
2017-10-06T19:58:16.633Z,71.20
2017-10-06T20:00:44.718Z,71.20
2017-10-06T20:03:12.849Z,71.30
2017-10-06T20:05:40.375Z,71.50
2017-10-06T20:08:09.593Z,71.60
2017-10-06T20:10:37.075Z,71.50
2017-10-06T20:13:04.608Z,71.60
2017-10-06T20:15:32.229Z,71.80
2017-10-06T20:17:59.800Z,71.80
2017-10-06T20:20:27.357Z,71.60
2017-10-06T20:22:54.879Z,71.70
2017-10-06T20:25:22.558Z,71.70
2017-10-06T20:27:50.826Z,71.60
2017-10-06T20:30:19.136Z,71.50
2017-10-06T20:32:48.354Z,72.50
2017-10-06T20:35:16.773Z,72.00
2017-10-06T20:37:44.985Z,72.00
2017-10-06T20:40:13.248Z,72.10
2017-10-06T20:42:41.809Z,72.10
2017-10-06T20:45:10.329Z,72.10
2017-10-06T20:47:39.264Z,72.10
2017-10-06T20:50:06.765Z,72.20
2017-10-06T20:52:34.283Z,72.20
2017-10-06T20:55:02.866Z,72.20
2017-10-06T20:57:31.066Z,72.30
2017-10-06T21:00:00.566Z,72.40
2017-10-06T21:02:29.041Z,72.30
2017-10-06T21:04:56.556Z,72.30
2017-10-06T21:07:25.541Z,72.50
2017-10-06T21:09:53.787Z,72.80
2017-10-06T21:12:22.304Z,72.70
2017-10-06T21:14:49.882Z,72.70
2017-10-06T21:17:18.419Z,72.80
2017-10-06T21:19:46.276Z,72.80
2017-10-06T21:22:13.827Z,73.00
2017-10-06T21:24:41.544Z,73.20
2017-10-06T21:27:09.245Z,73.00
2017-10-06T21:29:37.360Z,73.10
2017-10-06T21:32:04.903Z,73.70
2017-10-06T21:37:00.887Z,73.00
2017-10-06T21:39:28.388Z,73.10
2017-10-06T21:41:55.924Z,73.20
2017-10-06T21:44:23.912Z,72.80
2017-10-06T21:46:51.470Z,73.20
2017-10-06T21:49:19.605Z,72.90
2017-10-06T21:51:47.872Z,73.00
2017-10-06T21:54:16.368Z,73.00
2017-10-06T21:56:44.416Z,73.00
2017-10-06T21:59:12.331Z,72.90
2017-10-06T22:01:42.375Z,72.90
2017-10-06T22:04:10.033Z,72.90
2017-10-06T22:06:38.150Z,73.00
2017-10-06T22:09:07.601Z,73.40
2017-10-06T22:11:35.192Z,73.40
2017-10-06T22:14:03.977Z,73.40
2017-10-06T22:16:31.464Z,73.40
2017-10-06T22:18:58.973Z,73.40
2017-10-06T22:21:26.653Z,73.60
2017-10-06T22:23:54.363Z,73.40
2017-10-06T22:26:21.821Z,73.90
2017-10-06T22:28:49.444Z,74.20
2017-10-06T22:31:16.920Z,74.20
2017-10-06T22:33:44.438Z,74.20
2017-10-06T22:36:12.550Z,74.00
2017-10-06T22:38:42.668Z,74.30
2017-10-06T22:41:12.260Z,74.40
2017-10-06T22:43:39.765Z,74.60
2017-10-06T22:46:08.441Z,75.00
2017-10-06T22:48:38.022Z,74.90
2017-10-06T22:51:05.563Z,74.80
2017-10-06T22:53:34.003Z,74.80
2017-10-06T22:56:02.521Z,74.90
2017-10-06T22:58:31.118Z,74.80
2017-10-06T23:00:58.613Z,74.80
2017-10-06T23:03:27.545Z,74.40
2017-10-06T23:05:55.329Z,74.80
2017-10-06T23:08:22.880Z,74.70
2017-10-06T23:10:52.183Z,74.30
2017-10-06T23:13:19.880Z,74.40
2017-10-06T23:15:47.331Z,74.70
2017-10-06T23:18:14.885Z,74.40
2017-10-06T23:20:42.403Z,74.60
2017-10-06T23:23:10.376Z,74.40
2017-10-06T23:25:37.842Z,74.10
2017-10-06T23:28:06.181Z,73.90
2017-10-06T23:30:34.068Z,73.80
2017-10-06T23:33:01.635Z,74.50
2017-10-06T23:35:29.342Z,74.10
2017-10-06T23:37:57.569Z,73.80
2017-10-06T23:40:25.057Z,73.80
2017-10-06T23:42:53.290Z,74.20
2017-10-06T23:45:21.661Z,75.00
2017-10-06T23:47:50.319Z,74.30
2017-10-06T23:50:18.680Z,74.10
2017-10-06T23:52:46.151Z,74.30
2017-10-06T23:55:14.823Z,74.10
2017-10-06T23:57:42.746Z,74.00
